Adriatic Sea — WDB5553 — position and weather

sailwx.info

Track history (hours):
 
Tides and Currents Weather Stations Pressure Air Temp Water Temp Dewpoint Dewpoint Depression Visibility Wind Speed Wind Dir Waves Ship Positions

Adriatic Sea

Owner: Kirby Offshore Marine, LLC, Seattle, WA. More information available from US FCC via Universal Licensing System and Coast Guard Vessel Documentation Center.

Last reported at 2016-Feb-07 11:15 UTC. Time now 2016-Feb-07 12:52 UTC.
Position N 36°09' W 122°26'.

Length 42 m; draft 4.5 m.

Type: Tug. MMSI: 366910890.

Date/timePositionNaut miles runAvg speedWind from/ knotsBaromVisibWave heightAir tempDewpointWater temp
2016-Feb-07 11:15N 36°09' W 122°26'10 5.6
2016-Feb-07 09:30N 36°18' W 122°31'11 5.4
2016-Feb-07 07:27N 36°28' W 122°37'6 5.3
2016-Feb-07 06:19N 36°33' W 122°40'4 5.3
2016-Feb-07 05:33N 36°37' W 122°42'6 5.6
2016-Feb-07 04:33N 36°42' W 122°45'6 5.6
2016-Feb-07 03:34N 36°47' W 122°48'5 5.4
2016-Feb-07 02:33N 36°52' W 122°51'5 5.1
2016-Feb-07 01:33N 36°56' W 122°54'5 5.3
2016-Feb-07 00:33N 37°01' W 122°56'6 5.8
2016-Feb-06 23:33N 37°07' W 122°59'6 5.8
2016-Feb-06 22:33N 37°12' W 123°02'6 5.7
2016-Feb-06 21:34N 37°17' W 123°04'5 5.4
2016-Feb-06 20:33N 37°23' W 123°05'5 5.5
2016-Feb-06 19:33N 37°28' W 123°05'5 5.4
2016-Feb-06 18:33N 37°33' W 123°04'5 4.8
2016-Feb-06 17:34N 37°36' W 122°59'5 4.8
2016-Feb-06 16:33N 37°39' W 122°54'5 4.9
2016-Feb-06 15:34N 37°42' W 122°49'5 5.0
2016-Feb-06 14:33N 37°45' W 122°44'5 5.1
2016-Feb-06 13:33N 37°46' W 122°38'6 5.6
2016-Feb-06 12:33N 37°48' W 122°31'6 6.3
2016-Feb-06 11:33N 37°52' W 122°25'7 6.6
2016-Feb-06 10:33N 37°58' W 122°26'6 6.0
2016-Feb-06 09:33N 38°03' W 122°20'4 3.8
2016-Feb-06 08:33N 38°03' W 122°16'0 0.0
2016-Feb-06 07:33N 38°03' W 122°16'0 0.0
2016-Feb-06 06:33N 38°03' W 122°16'0 0.0
2016-Feb-06 05:33N 38°03' W 122°16'0 0.0
2016-Feb-06 04:33N 38°03' W 122°16'0 0.0
2016-Feb-06 03:33N 38°03' W 122°16'0 0.0
2016-Feb-05 18:10N 38°03' W 122°16'0 0.0
2016-Feb-05 17:30N 38°03' W 122°16'0 0.0
2016-Feb-05 16:31N 38°03' W 122°16'0 0.0
2016-Feb-05 15:32N 38°03' W 122°16'0 0.0
2016-Feb-05 14:33N 38°03' W 122°16'0 0.0
2016-Feb-05 13:27N 38°03' W 122°16'0 0.0
2016-Feb-05 10:33N 38°03' W 122°16'0 0.0
2016-Feb-05 09:33N 38°03' W 122°16'0 0.0
2016-Feb-05 08:33N 38°03' W 122°16'0 0.0
2016-Feb-05 07:33N 38°03' W 122°16'1 1.2
2016-Feb-05 06:33N 38°03' W 122°17'7 6.6
2016-Feb-05 05:33N 38°00' W 122°24'7 6.7
2016-Feb-05 04:34N 37°54' W 122°26'5 4.5
2016-Feb-05 03:33N 37°49' W 122°26'7 6.8
2016-Feb-05 02:33N 37°47' W 122°34'6 5.6
2016-Feb-05 01:33N 37°44' W 122°41'6 5.8
2016-Feb-05 00:32N 37°41' W 122°47'6 5.9
2016-Feb-04 23:33N 37°37' W 122°53'6 6.0
2016-Feb-04 22:33N 37°34' W 122°59'5 5.3
2016-Feb-04 21:33N 37°30' W 123°03'15 2.6
2016-Feb-04 15:31N 37°15' W 123°09'  
2016-Jan-30 22:27N 33°45' W 118°16'0 0.1
2016-Jan-30 20:23N 33°45' W 118°16'0 0.0
2016-Jan-30 19:27N 33°45' W 118°16'0 0.0
2016-Jan-30 15:34N 33°45' W 118°16'0 0.0
2016-Jan-30 14:33N 33°45' W 118°16'0 0.0
2016-Jan-30 13:33N 33°45' W 118°16'0 0.0
2016-Jan-30 12:34N 33°45' W 118°16'0 0.0
2016-Jan-30 11:33N 33°45' W 118°16'0 0.0
2016-Jan-30 10:34N 33°45' W 118°16'0 0.0
2016-Jan-30 09:34N 33°45' W 118°16'0 0.0
2016-Jan-30 08:33N 33°45' W 118°16'0 0.0
2016-Jan-30 07:33N 33°45' W 118°16'0 0.0
2016-Jan-30 06:33N 33°45' W 118°16'0 0.0
2016-Jan-30 05:33N 33°45' W 118°16'0 0.0
2016-Jan-30 04:32N 33°45' W 118°16'0 0.0
2016-Jan-30 03:31N 33°45' W 118°16'0 0.0
2016-Jan-30 00:33N 33°45' W 118°16'0 0.0
2016-Jan-29 23:33N 33°45' W 118°16'0 0.2
2016-Jan-29 22:32N 33°45' W 118°16'3 2.6
2016-Jan-29 21:34N 33°43' W 118°16'5 4.5
2016-Jan-29 20:34N 33°38' W 118°16'11 5.2
2016-Jan-29 18:24N 33°40' W 118°29'5 6.1
2016-Jan-29 17:33N 33°42' W 118°35'6 5.9
2016-Jan-29 16:34N 33°45' W 118°41'24 5.9
2016-Jan-29 12:33N 33°57' W 119°06'6 6.2
2016-Jan-29 11:30N 34°00' W 119°12'14 6.2
2016-Jan-29 09:09N 34°05' W 119°29'50 6.4
2016-Jan-29 01:18N 34°18' W 120°27'5 6.1
2016-Jan-29 00:30N 34°20' W 120°33'6 6.4
2016-Jan-28 23:33N 34°21' W 120°40'6 6.3
2016-Jan-28 22:33N 34°23' W 120°47'6 5.9
2016-Jan-28 21:33N 34°25' W 120°54'5 5.5
2016-Jan-28 20:33N 34°27' W 121°00'5 5.4
2016-Jan-28 19:34N 34°29' W 121°06'6 5.7
2016-Jan-28 18:33N 34°31' W 121°12'6 6.2
2016-Jan-28 17:33N 34°36' W 121°17'6 6.4
2016-Jan-28 16:34N 34°41' W 121°21'6 6.4
2016-Jan-28 15:34N 34°47' W 121°26'7 6.6
2016-Jan-28 14:33N 34°53' W 121°30'7 6.4
2016-Jan-28 13:27N 34°59' W 121°34'  
Track history (hours):
 
Tides and Currents Weather Stations Pressure Air Temp Water Temp Dewpoint Dewpoint Depression Visibility Wind Speed Wind Dir Waves Ship Positions

Adriatic Sea

Owner: Kirby Offshore Marine, LLC, Seattle, WA. More information available from US FCC via Universal Licensing System and Coast Guard Vessel Documentation Center.

Last reported at 2016-Feb-07 11:15 UTC. Time now 2016-Feb-07 12:52 UTC.
Position N 36°09' W 122°26'.

Length 42 m; draft 4.5 m.

Type: Tug. MMSI: 366910890.

Date/timePositionNaut miles runAvg speedWind from/ knotsBaromVisibWave heightAir tempDewpointWater temp
2016-Feb-07 11:15N 36°09' W 122°26'10 5.6
2016-Feb-07 09:30N 36°18' W 122°31'11 5.4
2016-Feb-07 07:27N 36°28' W 122°37'6 5.3
2016-Feb-07 06:19N 36°33' W 122°40'4 5.3
2016-Feb-07 05:33N 36°37' W 122°42'6 5.6
2016-Feb-07 04:33N 36°42' W 122°45'6 5.6
2016-Feb-07 03:34N 36°47' W 122°48'5 5.4
2016-Feb-07 02:33N 36°52' W 122°51'5 5.1
2016-Feb-07 01:33N 36°56' W 122°54'5 5.3
2016-Feb-07 00:33N 37°01' W 122°56'6 5.8
2016-Feb-06 23:33N 37°07' W 122°59'6 5.8
2016-Feb-06 22:33N 37°12' W 123°02'6 5.7
2016-Feb-06 21:34N 37°17' W 123°04'5 5.4
2016-Feb-06 20:33N 37°23' W 123°05'5 5.5
2016-Feb-06 19:33N 37°28' W 123°05'5 5.4
2016-Feb-06 18:33N 37°33' W 123°04'5 4.8
2016-Feb-06 17:34N 37°36' W 122°59'5 4.8
2016-Feb-06 16:33N 37°39' W 122°54'5 4.9
2016-Feb-06 15:34N 37°42' W 122°49'5 5.0
2016-Feb-06 14:33N 37°45' W 122°44'5 5.1
2016-Feb-06 13:33N 37°46' W 122°38'6 5.6
2016-Feb-06 12:33N 37°48' W 122°31'6 6.3
2016-Feb-06 11:33N 37°52' W 122°25'7 6.6
2016-Feb-06 10:33N 37°58' W 122°26'6 6.0
2016-Feb-06 09:33N 38°03' W 122°20'4 3.8
2016-Feb-06 08:33N 38°03' W 122°16'0 0.0
2016-Feb-06 07:33N 38°03' W 122°16'0 0.0
2016-Feb-06 06:33N 38°03' W 122°16'0 0.0
2016-Feb-06 05:33N 38°03' W 122°16'0 0.0
2016-Feb-06 04:33N 38°03' W 122°16'0 0.0
2016-Feb-06 03:33N 38°03' W 122°16'0 0.0
2016-Feb-05 18:10N 38°03' W 122°16'0 0.0
2016-Feb-05 17:30N 38°03' W 122°16'0 0.0
2016-Feb-05 16:31N 38°03' W 122°16'0 0.0
2016-Feb-05 15:32N 38°03' W 122°16'0 0.0
2016-Feb-05 14:33N 38°03' W 122°16'0 0.0
2016-Feb-05 13:27N 38°03' W 122°16'0 0.0
2016-Feb-05 10:33N 38°03' W 122°16'0 0.0
2016-Feb-05 09:33N 38°03' W 122°16'0 0.0
2016-Feb-05 08:33N 38°03' W 122°16'0 0.0
2016-Feb-05 07:33N 38°03' W 122°16'1 1.2
2016-Feb-05 06:33N 38°03' W 122°17'7 6.6
2016-Feb-05 05:33N 38°00' W 122°24'7 6.7
2016-Feb-05 04:34N 37°54' W 122°26'5 4.5
2016-Feb-05 03:33N 37°49' W 122°26'7 6.8
2016-Feb-05 02:33N 37°47' W 122°34'6 5.6
2016-Feb-05 01:33N 37°44' W 122°41'6 5.8
2016-Feb-05 00:32N 37°41' W 122°47'6 5.9
2016-Feb-04 23:33N 37°37' W 122°53'6 6.0
2016-Feb-04 22:33N 37°34' W 122°59'5 5.3
2016-Feb-04 21:33N 37°30' W 123°03'15 2.6
2016-Feb-04 15:31N 37°15' W 123°09'  
2016-Jan-30 22:27N 33°45' W 118°16'0 0.1
2016-Jan-30 20:23N 33°45' W 118°16'0 0.0
2016-Jan-30 19:27N 33°45' W 118°16'0 0.0
2016-Jan-30 15:34N 33°45' W 118°16'0 0.0
2016-Jan-30 14:33N 33°45' W 118°16'0 0.0
2016-Jan-30 13:33N 33°45' W 118°16'0 0.0
2016-Jan-30 12:34N 33°45' W 118°16'0 0.0
2016-Jan-30 11:33N 33°45' W 118°16'0 0.0
2016-Jan-30 10:34N 33°45' W 118°16'0 0.0
2016-Jan-30 09:34N 33°45' W 118°16'0 0.0
2016-Jan-30 08:33N 33°45' W 118°16'0 0.0
2016-Jan-30 07:33N 33°45' W 118°16'0 0.0
2016-Jan-30 06:33N 33°45' W 118°16'0 0.0
2016-Jan-30 05:33N 33°45' W 118°16'0 0.0
2016-Jan-30 04:32N 33°45' W 118°16'0 0.0
2016-Jan-30 03:31N 33°45' W 118°16'0 0.0
2016-Jan-30 00:33N 33°45' W 118°16'0 0.0
2016-Jan-29 23:33N 33°45' W 118°16'0 0.2
2016-Jan-29 22:32N 33°45' W 118°16'3 2.6
2016-Jan-29 21:34N 33°43' W 118°16'5 4.5
2016-Jan-29 20:34N 33°38' W 118°16'11 5.2
2016-Jan-29 18:24N 33°40' W 118°29'5 6.1
2016-Jan-29 17:33N 33°42' W 118°35'6 5.9
2016-Jan-29 16:34N 33°45' W 118°41'24 5.9
2016-Jan-29 12:33N 33°57' W 119°06'6 6.2
2016-Jan-29 11:30N 34°00' W 119°12'14 6.2
2016-Jan-29 09:09N 34°05' W 119°29'50 6.4
2016-Jan-29 01:18N 34°18' W 120°27'5 6.1
2016-Jan-29 00:30N 34°20' W 120°33'6 6.4
2016-Jan-28 23:33N 34°21' W 120°40'6 6.3
2016-Jan-28 22:33N 34°23' W 120°47'6 5.9
2016-Jan-28 21:33N 34°25' W 120°54'5 5.5
2016-Jan-28 20:33N 34°27' W 121°00'5 5.4
2016-Jan-28 19:34N 34°29' W 121°06'6 5.7
2016-Jan-28 18:33N 34°31' W 121°12'6 6.2
2016-Jan-28 17:33N 34°36' W 121°17'6 6.4
2016-Jan-28 16:34N 34°41' W 121°21'6 6.4
2016-Jan-28 15:34N 34°47' W 121°26'7 6.6
2016-Jan-28 14:33N 34°53' W 121°30'7 6.4
2016-Jan-28 13:27N 34°59' W 121°34'  

Dump ship's entire track history